sensor_id;sensor_type;location;lat;lon;timestamp;pressure;altitude;pressure_sealevel;temperature;humidity
25420;BME280;13354;48.174;11.566;2023-07-28T00:00:05;95135.19;;;17.92;72.63
25420;BME280;13354;48.174;11.566;2023-07-28T00:02:31;95129.59;;;17.94;71.14
25420;BME280;13354;48.174;11.566;2023-07-28T00:04:56;95130.88;;;17.91;72.95
25420;BME280;13354;48.174;11.566;2023-07-28T00:07:21;95122.84;;;17.91;72.23
25420;BME280;13354;48.174;11.566;2023-07-28T00:09:47;95133.81;;;17.90;72.49
25420;BME280;13354;48.174;11.566;2023-07-28T00:12:12;95128.16;;;17.86;72.23
25420;BME280;13354;48.174;11.566;2023-07-28T00:14:37;95130.00;;;17.85;71.94
25420;BME280;13354;48.174;11.566;2023-07-28T00:17:03;95128.09;;;17.81;72.96
25420;BME280;13354;48.174;11.566;2023-07-28T00:19:28;95117.81;;;17.73;74.15
25420;BME280;13354;48.174;11.566;2023-07-28T00:21:53;95120.66;;;17.66;74.57
25420;BME280;13354;48.174;11.566;2023-07-28T00:24:21;95117.94;;;17.61;74.92
25420;BME280;13354;48.174;11.566;2023-07-28T00:26:46;95109.16;;;17.66;74.71
25420;BME280;13354;48.174;11.566;2023-07-28T00:29:11;95110.53;;;17.68;75.09
25420;BME280;13354;48.174;11.566;2023-07-28T00:31:37;95106.28;;;17.72;74.30
25420;BME280;13354;48.174;11.566;2023-07-28T00:34:03;95099.22;;;17.83;72.78
25420;BME280;13354;48.174;11.566;2023-07-28T00:36:28;95105.06;;;17.80;73.08
25420;BME280;13354;48.174;11.566;2023-07-28T00:38:54;95105.47;;;17.94;71.59
25420;BME280;13354;48.174;11.566;2023-07-28T00:41:19;95109.47;;;17.91;71.64
25420;BME280;13354;48.174;11.566;2023-07-28T00:43:44;95101.56;;;17.79;73.12
25420;BME280;13354;48.174;11.566;2023-07-28T00:46:10;95104.25;;;17.79;74.14
25420;BME280;13354;48.174;11.566;2023-07-28T00:48:35;95102.38;;;17.80;73.30
25420;BME280;13354;48.174;11.566;2023-07-28T00:51:01;95105.28;;;17.78;73.77
25420;BME280;13354;48.174;11.566;2023-07-28T00:53:27;95098.44;;;17.88;72.74
25420;BME280;13354;48.174;11.566;2023-07-28T00:55:53;95101.31;;;17.81;73.20
25420;BME280;13354;48.174;11.566;2023-07-28T00:58:18;95107.84;;;18.17;71.44
25420;BME280;13354;48.174;11.566;2023-07-28T01:00:44;95115.69;;;17.75;72.06
25420;BME280;13354;48.174;11.566;2023-07-28T01:03:09;95107.84;;;17.68;72.24
25420;BME280;13354;48.174;11.566;2023-07-28T01:11:19;95113.13;;;17.63;72.11
25420;BME280;13354;48.174;11.566;2023-07-28T01:13:45;95112.72;;;17.49;72.03
25420;BME280;13354;48.174;11.566;2023-07-28T01:16:10;95115.44;;;17.54;71.55
25420;BME280;13354;48.174;11.566;2023-07-28T01:18:36;95115.44;;;17.54;71.06
25420;BME280;13354;48.174;11.566;2023-07-28T01:21:03;95113.50;;;17.50;71.25
25420;BME280;13354;48.174;11.566;2023-07-28T01:26:08;95113.31;;;17.34;71.87
25420;BME280;13354;48.174;11.566;2023-07-28T01:28:35;95107.22;;;17.39;70.96
25420;BME280;13354;48.174;11.566;2023-07-28T01:31:05;95107.03;;;17.46;70.90
25420;BME280;13354;48.174;11.566;2023-07-28T01:33:31;95117.13;;;17.38;70.97
25420;BME280;13354;48.174;11.566;2023-07-28T01:35:56;95111.38;;;17.30;71.56
25420;BME280;13354;48.174;11.566;2023-07-28T01:38:21;95111.06;;;17.26;71.31
25420;BME280;13354;48.174;11.566;2023-07-28T01:40:47;95108.84;;;17.40;70.73
25420;BME280;13354;48.174;11.566;2023-07-28T01:43:12;95109.44;;;17.25;71.16
25420;BME280;13354;48.174;11.566;2023-07-28T01:45:38;95110.56;;;17.29;70.45
25420;BME280;13354;48.174;11.566;2023-07-28T01:48:03;95112.59;;;17.22;71.18
25420;BME280;13354;48.174;11.566;2023-07-28T01:50:29;95103.72;;;17.17;71.30
25420;BME280;13354;48.174;11.566;2023-07-28T01:52:54;95105.06;;;17.19;71.19
25420;BME280;13354;48.174;11.566;2023-07-28T01:55:20;95109.88;;;17.17;71.15
25420;BME280;13354;48.174;11.566;2023-07-28T01:57:55;95101.97;;;17.05;71.28
25420;BME280;13354;48.174;11.566;2023-07-28T02:00:21;95106.78;;;17.08;70.97
25420;BME280;13354;48.174;11.566;2023-07-28T02:02:47;95114.44;;;17.17;70.88
25420;BME280;13354;48.174;11.566;2023-07-28T02:05:13;95105.81;;;17.14;70.56
25420;BME280;13354;48.174;11.566;2023-07-28T02:07:38;95105.19;;;17.07;70.38
25420;BME280;13354;48.174;11.566;2023-07-28T02:10:03;95104.66;;;17.05;70.42
25420;BME280;13354;48.174;11.566;2023-07-28T02:12:29;95114.81;;;17.08;70.18
25420;BME280;13354;48.174;11.566;2023-07-28T02:14:54;95113.69;;;17.04;70.37
25420;BME280;13354;48.174;11.566;2023-07-28T02:17:20;95109.47;;;17.08;69.93
25420;BME280;13354;48.174;11.566;2023-07-28T02:19:45;95111.34;;;17.08;69.62
25420;BME280;13354;48.174;11.566;2023-07-28T02:22:11;95108.66;;;17.08;69.48
25420;BME280;13354;48.174;11.566;2023-07-28T02:24:36;95114.22;;;17.01;69.91
25420;BME280;13354;48.174;11.566;2023-07-28T02:27:02;95110.97;;;16.99;69.94
25420;BME280;13354;48.174;11.566;2023-07-28T02:29:27;95110.91;;;16.94;69.93
25420;BME280;13354;48.174;11.566;2023-07-28T02:31:52;95114.59;;;16.93;70.16
25420;BME280;13354;48.174;11.566;2023-07-28T02:34:17;95113.63;;;16.99;69.83
25420;BME280;13354;48.174;11.566;2023-07-28T02:36:43;95110.91;;;16.94;70.20
25420;BME280;13354;48.174;11.566;2023-07-28T02:39:08;95112.09;;;17.03;69.69
25420;BME280;13354;48.174;11.566;2023-07-28T02:41:33;95109.78;;;16.90;69.60
25420;BME280;13354;48.174;11.566;2023-07-28T02:43:59;95106.41;;;17.00;69.52
25420;BME280;13354;48.174;11.566;2023-07-28T02:46:24;95103.19;;;16.98;69.50
25420;BME280;13354;48.174;11.566;2023-07-28T02:48:51;95105.28;;;16.96;69.62
25420;BME280;13354;48.174;11.566;2023-07-28T02:51:16;95102.81;;;17.11;69.64
25420;BME280;13354;48.174;11.566;2023-07-28T02:53:41;95108.28;;;16.99;69.53
25420;BME280;13354;48.174;11.566;2023-07-28T02:56:07;95100.84;;;17.01;69.68
25420;BME280;13354;48.174;11.566;2023-07-28T02:58:32;95107.38;;;17.10;69.44
25420;BME280;13354;48.174;11.566;2023-07-28T03:00:58;95107.16;;;16.95;69.50
25420;BME280;13354;48.174;11.566;2023-07-28T03:03:23;95103.53;;;17.01;69.92
25420;BME280;13354;48.174;11.566;2023-07-28T03:05:52;95096.31;;;16.85;69.99
25420;BME280;13354;48.174;11.566;2023-07-28T03:08:18;95101.13;;;16.83;70.09
25420;BME280;13354;48.174;11.566;2023-07-28T03:10:43;95091.19;;;16.66;70.97
25420;BME280;13354;48.174;11.566;2023-07-28T03:13:08;95091.72;;;16.80;70.46
25420;BME280;13354;48.174;11.566;2023-07-28T03:15:34;95100.59;;;16.69;71.18
25420;BME280;13354;48.174;11.566;2023-07-28T03:17:59;95102.00;;;16.72;70.84
25420;BME280;13354;48.174;11.566;2023-07-28T03:20:24;95113.81;;;16.59;71.56
25420;BME280;13354;48.174;11.566;2023-07-28T03:22:50;95104.66;;;16.55;71.93
25420;BME280;13354;48.174;11.566;2023-07-28T03:25:15;95100.44;;;16.59;71.73
25420;BME280;13354;48.174;11.566;2023-07-28T03:27:41;95096.56;;;16.50;71.94
25420;BME280;13354;48.174;11.566;2023-07-28T03:30:06;95108.88;;;16.51;72.04
25420;BME280;13354;48.174;11.566;2023-07-28T03:32:34;95117.28;;;16.42;72.24
25420;BME280;13354;48.174;11.566;2023-07-28T03:34:59;95113.56;;;16.43;72.63
25420;BME280;13354;48.174;11.566;2023-07-28T03:37:25;95109.50;;;16.41;72.30
25420;BME280;13354;48.174;11.566;2023-07-28T03:39:50;95112.75;;;16.43;72.13
25420;BME280;13354;48.174;11.566;2023-07-28T03:42:15;95120.03;;;16.48;72.15
25420;BME280;13354;48.174;11.566;2023-07-28T03:44:41;95112.97;;;16.41;72.34
25420;BME280;13354;48.174;11.566;2023-07-28T03:47:07;95113.22;;;16.40;72.60
25420;BME280;13354;48.174;11.566;2023-07-28T03:49:32;95113.56;;;16.43;72.48
25420;BME280;13354;48.174;11.566;2023-07-28T03:51:57;95108.22;;;16.43;72.66
25420;BME280;13354;48.174;11.566;2023-07-28T03:54:23;95106.94;;;16.46;72.64
25420;BME280;13354;48.174;11.566;2023-07-28T03:56:48;95113.94;;;16.52;72.36
25420;BME280;13354;48.174;11.566;2023-07-28T03:59:14;95106.34;;;16.61;72.02
25420;BME280;13354;48.174;11.566;2023-07-28T04:01:39;95107.06;;;16.56;72.11
25420;BME280;13354;48.174;11.566;2023-07-28T04:04:05;95110.53;;;16.57;72.46
25420;BME280;13354;48.174;11.566;2023-07-28T04:06:47;95106.09;;;16.62;72.46
25420;BME280;13354;48.174;11.566;2023-07-28T04:09:14;95107.06;;;16.56;72.62
25420;BME280;13354;48.174;11.566;2023-07-28T04:11:40;95112.63;;;16.83;71.99
25420;BME280;13354;48.174;11.566;2023-07-28T04:14:06;95109.63;;;16.80;71.75
25420;BME280;13354;48.174;11.566;2023-07-28T04:16:32;95109.84;;;16.78;71.94
25420;BME280;13354;48.174;11.566;2023-07-28T04:18:57;95114.47;;;16.83;71.75
25420;BME280;13354;48.174;11.566;2023-07-28T04:21:23;95110.22;;;17.04;71.23
25420;BME280;13354;48.174;11.566;2023-07-28T04:23:48;95116.16;;;17.06;71.07
25420;BME280;13354;48.174;11.566;2023-07-28T04:26:13;95099.53;;;17.04;71.28
25420;BME280;13354;48.174;11.566;2023-07-28T04:28:39;95107.75;;;17.19;71.04
25420;BME280;13354;48.174;11.566;2023-07-28T04:31:05;95111.31;;;17.25;70.74
25420;BME280;13354;48.174;11.566;2023-07-28T04:33:30;95115.59;;;17.26;71.25
25420;BME280;13354;48.174;11.566;2023-07-28T04:35:55;95113.25;;;17.29;71.46
25420;BME280;13354;48.174;11.566;2023-07-28T04:38:21;95114.84;;;17.30;71.35
25420;BME280;13354;48.174;11.566;2023-07-28T04:40:46;95119.84;;;17.44;71.23
25420;BME280;13354;48.174;11.566;2023-07-28T04:43:11;95119.41;;;17.52;71.12
25420;BME280;13354;48.174;11.566;2023-07-28T04:45:37;95116.19;;;17.50;71.20
25420;BME280;13354;48.174;11.566;2023-07-28T04:48:02;95124.09;;;17.61;71.16
25420;BME280;13354;48.174;11.566;2023-07-28T04:50:28;95120.28;;;17.57;71.39
25420;BME280;13354;48.174;11.566;2023-07-28T04:52:54;95122.47;;;17.60;71.37
25420;BME280;13354;48.174;11.566;2023-07-28T04:55:19;95130.50;;;17.60;71.63
25420;BME280;13354;48.174;11.566;2023-07-28T04:57:44;95132.16;;;17.83;70.77
25420;BME280;13354;48.174;11.566;2023-07-28T05:00:10;95130.09;;;17.91;70.77
25420;BME280;13354;48.174;11.566;2023-07-28T05:02:36;95127.53;;;18.01;70.25
25420;BME280;13354;48.174;11.566;2023-07-28T05:05:01;95133.38;;;17.98;70.18
25420;BME280;13354;48.174;11.566;2023-07-28T05:07:26;95136.22;;;18.13;69.95
25420;BME280;13354;48.174;11.566;2023-07-28T05:09:52;95132.63;;;18.02;70.09
25420;BME280;13354;48.174;11.566;2023-07-28T05:12:17;95138.94;;;18.18;69.95
25420;BME280;13354;48.174;11.566;2023-07-28T05:14:42;95136.75;;;18.15;69.97
25420;BME280;13354;48.174;11.566;2023-07-28T05:17:08;95139.81;;;18.24;69.58
25420;BME280;13354;48.174;11.566;2023-07-28T05:19:33;95135.75;;;18.21;69.88
25420;BME280;13354;48.174;11.566;2023-07-28T05:21:58;95140.59;;;18.24;69.74
25420;BME280;13354;48.174;11.566;2023-07-28T05:24:23;95146.53;;;18.26;69.66
25420;BME280;13354;48.174;11.566;2023-07-28T05:26:49;95146.91;;;18.40;69.61
25420;BME280;13354;48.174;11.566;2023-07-28T05:29:14;95145.41;;;18.49;68.94
25420;BME280;13354;48.174;11.566;2023-07-28T05:31:39;95143.25;;;18.51;69.36
25420;BME280;13354;48.174;11.566;2023-07-28T05:34:05;95148.31;;;18.48;69.32
25420;BME280;13354;48.174;11.566;2023-07-28T05:36:30;95147.91;;;18.61;69.22
25420;BME280;13354;48.174;11.566;2023-07-28T05:38:57;95148.75;;;18.67;69.00
25420;BME280;13354;48.174;11.566;2023-07-28T05:41:23;95152.81;;;18.69;69.49
25420;BME280;13354;48.174;11.566;2023-07-28T05:43:49;95159.22;;;18.95;68.59
25420;BME280;13354;48.174;11.566;2023-07-28T05:46:14;95158.97;;;18.97;68.62
25420;BME280;13354;48.174;11.566;2023-07-28T05:48:39;95161.41;;;19.03;68.56
25420;BME280;13354;48.174;11.566;2023-07-28T05:51:04;95165.31;;;19.23;68.18
25420;BME280;13354;48.174;11.566;2023-07-28T05:53:30;95167.66;;;19.14;68.31
25420;BME280;13354;48.174;11.566;2023-07-28T05:55:55;95179.25;;;18.88;69.58
25420;BME280;13354;48.174;11.566;2023-07-28T05:58:20;95168.59;;;18.93;69.72
25420;BME280;13354;48.174;11.566;2023-07-28T06:00:46;95169.28;;;19.15;69.18
25420;BME280;13354;48.174;11.566;2023-07-28T06:03:11;95171.41;;;19.13;69.32
25420;BME280;13354;48.174;11.566;2023-07-28T06:05:38;95184.97;;;19.34;69.03
25420;BME280;13354;48.174;11.566;2023-07-28T06:08:04;95191.81;;;19.57;68.02
25420;BME280;13354;48.174;11.566;2023-07-28T06:10:30;95189.47;;;19.65;67.98
25420;BME280;13354;48.174;11.566;2023-07-28T06:12:55;95182.84;;;19.78;67.55
25420;BME280;13354;48.174;11.566;2023-07-28T06:15:20;95186.84;;;19.75;68.01
25420;BME280;13354;48.174;11.566;2023-07-28T06:17:46;95193.19;;;19.59;68.54
25420;BME280;13354;48.174;11.566;2023-07-28T06:20:11;95200.91;;;19.50;69.23
25420;BME280;13354;48.174;11.566;2023-07-28T06:22:36;95207.53;;;19.80;68.52
25420;BME280;13354;48.174;11.566;2023-07-28T06:25:02;95202.56;;;19.62;68.40
25420;BME280;13354;48.174;11.566;2023-07-28T06:27:27;95202.38;;;19.63;68.89
25420;BME280;13354;48.174;11.566;2023-07-28T06:29:53;95215.66;;;19.85;67.58
25420;BME280;13354;48.174;11.566;2023-07-28T06:32:18;95209.19;;;19.86;66.71
25420;BME280;13354;48.174;11.566;2023-07-28T06:34:45;95207.94;;;20.04;65.65
25420;BME280;13354;48.174;11.566;2023-07-28T06:37:10;95209.72;;;19.83;66.18
25420;BME280;13354;48.174;11.566;2023-07-28T06:39:36;95217.25;;;19.91;66.26
25420;BME280;13354;48.174;11.566;2023-07-28T06:42:01;95225.75;;;19.68;66.97
25420;BME280;13354;48.174;11.566;2023-07-28T06:44:26;95221.53;;;19.87;66.15
25420;BME280;13354;48.174;11.566;2023-07-28T06:46:51;95220.78;;;19.97;65.95
25420;BME280;13354;48.174;11.566;2023-07-28T06:49:17;95217.06;;;20.03;65.85
25420;BME280;13354;48.174;11.566;2023-07-28T06:51:42;95217.31;;;20.07;66.06
25420;BME280;13354;48.174;11.566;2023-07-28T06:54:07;95211.72;;;20.13;65.62
25420;BME280;13354;48.174;11.566;2023-07-28T06:56:37;95218.53;;;20.36;64.74
25420;BME280;13354;48.174;11.566;2023-07-28T06:59:03;95219.63;;;20.45;63.91
25420;BME280;13354;48.174;11.566;2023-07-28T07:01:28;95215.69;;;20.73;63.67
25420;BME280;13354;48.174;11.566;2023-07-28T07:03:53;95216.22;;;20.81;64.11
25420;BME280;13354;48.174;11.566;2023-07-28T07:06:19;95215.94;;;21.28;62.33
25420;BME280;13354;48.174;11.566;2023-07-28T07:08:44;95220.81;;;21.41;61.72
25420;BME280;13354;48.174;11.566;2023-07-28T07:11:09;95210.81;;;21.32;61.68
25420;BME280;13354;48.174;11.566;2023-07-28T07:13:34;95227.28;;;21.35;62.32
25420;BME280;13354;48.174;11.566;2023-07-28T07:16:00;95224.84;;;21.59;61.74
25420;BME280;13354;48.174;11.566;2023-07-28T07:18:25;95218.91;;;21.62;61.01
25420;BME280;13354;48.174;11.566;2023-07-28T07:20:51;95219.06;;;22.02;60.25
25420;BME280;13354;48.174;11.566;2023-07-28T07:23:16;95219.59;;;22.04;59.50
25420;BME280;13354;48.174;11.566;2023-07-28T07:25:41;95211.50;;;22.04;60.27
25420;BME280;13354;48.174;11.566;2023-07-28T07:28:07;95212.84;;;22.01;60.15
25420;BME280;13354;48.174;11.566;2023-07-28T07:30:33;95213.16;;;21.89;60.23
25420;BME280;13354;48.174;11.566;2023-07-28T07:33:01;95214.84;;;22.45;59.30
25420;BME280;13354;48.174;11.566;2023-07-28T07:35:26;95208.19;;;22.27;59.70
25420;BME280;13354;48.174;11.566;2023-07-28T07:37:52;95216.09;;;22.63;59.04
25420;BME280;13354;48.174;11.566;2023-07-28T07:40:17;95209.91;;;23.36;57.07
25420;BME280;13354;48.174;11.566;2023-07-28T07:42:47;95216.69;;;23.68;55.60
25420;BME280;13354;48.174;11.566;2023-07-28T07:45:13;95213.25;;;23.57;56.36
25420;BME280;13354;48.174;11.566;2023-07-28T07:47:41;95220.50;;;23.91;54.38
25420;BME280;13354;48.174;11.566;2023-07-28T07:50:08;95209.44;;;23.87;54.07
25420;BME280;13354;48.174;11.566;2023-07-28T07:52:35;95207.16;;;23.41;53.78
25420;BME280;13354;48.174;11.566;2023-07-28T07:55:01;95217.00;;;22.93;54.65
25420;BME280;13354;48.174;11.566;2023-07-28T07:57:27;95219.72;;;22.93;54.21
25420;BME280;13354;48.174;11.566;2023-07-28T07:59:52;95220.94;;;23.10;54.45
25420;BME280;13354;48.174;11.566;2023-07-28T08:02:18;95226.34;;;23.10;53.72
25420;BME280;13354;48.174;11.566;2023-07-28T08:04:43;95226.72;;;22.94;53.92
25420;BME280;13354;48.174;11.566;2023-07-28T08:07:08;95220.00;;;22.86;54.20
25420;BME280;13354;48.174;11.566;2023-07-28T08:09:33;95228.44;;;22.79;54.28
25420;BME280;13354;48.174;11.566;2023-07-28T08:11:59;95229.97;;;22.90;54.63
25420;BME280;13354;48.174;11.566;2023-07-28T08:14:25;95226.44;;;23.34;53.51
25420;BME280;13354;48.174;11.566;2023-07-28T08:16:50;95228.84;;;23.36;53.21
25420;BME280;13354;48.174;11.566;2023-07-28T08:19:15;95237.69;;;24.00;52.24
25420;BME280;13354;48.174;11.566;2023-07-28T08:21:41;95244.34;;;24.07;52.55
25420;BME280;13354;48.174;11.566;2023-07-28T08:24:06;95225.16;;;24.09;52.19
25420;BME280;13354;48.174;11.566;2023-07-28T08:26:32;95226.97;;;24.38;52.46
25420;BME280;13354;48.174;11.566;2023-07-28T08:28:57;95227.69;;;24.67;51.35
25420;BME280;13354;48.174;11.566;2023-07-28T08:31:22;95236.63;;;24.87;50.51
25420;BME280;13354;48.174;11.566;2023-07-28T08:33:48;95230.66;;;24.47;51.48
25420;BME280;13354;48.174;11.566;2023-07-28T08:36:13;95233.69;;;24.64;51.40
25420;BME280;13354;48.174;11.566;2023-07-28T08:38:38;95229.56;;;24.48;51.45
25420;BME280;13354;48.174;11.566;2023-07-28T08:41:04;95239.97;;;24.11;52.91
25420;BME280;13354;48.174;11.566;2023-07-28T08:43:30;95241.66;;;24.07;53.01
25420;BME280;13354;48.174;11.566;2023-07-28T08:45:56;95243.09;;;24.00;53.49
25420;BME280;13354;48.174;11.566;2023-07-28T08:48:22;95245.63;;;23.91;53.18
25420;BME280;13354;48.174;11.566;2023-07-28T08:50:48;95237.56;;;24.10;53.49
25420;BME280;13354;48.174;11.566;2023-07-28T08:53:13;95235.41;;;24.12;53.50
25420;BME280;13354;48.174;11.566;2023-07-28T08:55:39;95234.88;;;24.10;53.71
25420;BME280;13354;48.174;11.566;2023-07-28T08:58:21;95223.88;;;24.25;52.89
25420;BME280;13354;48.174;11.566;2023-07-28T09:00:50;95237.91;;;24.03;53.92
25420;BME280;13354;48.174;11.566;2023-07-28T09:03:16;95236.25;;;24.07;54.20
25420;BME280;13354;48.174;11.566;2023-07-28T09:05:46;95236.44;;;24.16;53.37
25420;BME280;13354;48.174;11.566;2023-07-28T09:08:15;95248.00;;;23.98;53.37
25420;BME280;13354;48.174;11.566;2023-07-28T09:10:46;95238.47;;;24.00;53.02
25420;BME280;13354;48.174;11.566;2023-07-28T09:13:17;95239.69;;;23.89;52.65
25420;BME280;13354;48.174;11.566;2023-07-28T09:15:42;95247.22;;;23.92;53.30
25420;BME280;13354;48.174;11.566;2023-07-28T09:18:12;95245.69;;;23.52;53.82
25420;BME280;13354;48.174;11.566;2023-07-28T09:20:40;95238.84;;;23.65;54.12
25420;BME280;13354;48.174;11.566;2023-07-28T09:23:07;95243.25;;;23.55;54.65
25420;BME280;13354;48.174;11.566;2023-07-28T09:25:33;95241.63;;;23.54;54.24
25420;BME280;13354;48.174;11.566;2023-07-28T09:27:59;95243.28;;;23.50;54.28
25420;BME280;13354;48.174;11.566;2023-07-28T09:30:26;95248.63;;;23.26;55.35
25420;BME280;13354;48.174;11.566;2023-07-28T09:32:53;95245.41;;;23.24;55.07
25420;BME280;13354;48.174;11.566;2023-07-28T09:35:20;95247.16;;;23.05;55.19
25420;BME280;13354;48.174;11.566;2023-07-28T09:37:47;95242.53;;;23.10;54.59
25420;BME280;13354;48.174;11.566;2023-07-28T09:40:16;95248.06;;;22.85;55.46
25420;BME280;13354;48.174;11.566;2023-07-28T09:42:43;95246.16;;;22.90;55.35
25420;BME280;13354;48.174;11.566;2023-07-28T09:45:10;95247.88;;;22.76;56.08
25420;BME280;13354;48.174;11.566;2023-07-28T09:47:37;95247.34;;;22.74;56.12
25420;BME280;13354;48.174;11.566;2023-07-28T09:50:05;95247.16;;;23.05;55.48
25420;BME280;13354;48.174;11.566;2023-07-28T09:52:33;95245.16;;;23.21;55.53
25420;BME280;13354;48.174;11.566;2023-07-28T09:55:00;95242.00;;;23.43;54.48
25420;BME280;13354;48.174;11.566;2023-07-28T09:57:34;95240.13;;;23.43;53.92
25420;BME280;13354;48.174;11.566;2023-07-28T10:00:02;95238.03;;;23.35;54.73
25420;BME280;13354;48.174;11.566;2023-07-28T10:02:28;95230.91;;;23.44;54.52
25420;BME280;13354;48.174;11.566;2023-07-28T10:04:54;95232.97;;;23.57;54.03
25420;BME280;13354;48.174;11.566;2023-07-28T10:07:20;95228.81;;;23.70;53.82
25420;BME280;13354;48.174;11.566;2023-07-28T10:09:46;95224.97;;;23.76;54.12
25420;BME280;13354;48.174;11.566;2023-07-28T10:12:18;95239.81;;;24.03;52.60
25420;BME280;13354;48.174;11.566;2023-07-28T10:14:44;95223.84;;;23.82;52.91
25420;BME280;13354;48.174;11.566;2023-07-28T10:17:15;95236.97;;;23.60;54.17
25420;BME280;13354;48.174;11.566;2023-07-28T10:19:41;95240.34;;;23.47;54.04
25420;BME280;13354;48.174;11.566;2023-07-28T10:22:09;95235.84;;;23.37;54.62
25420;BME280;13354;48.174;11.566;2023-07-28T10:24:54;95242.97;;;23.57;54.40
25420;BME280;13354;48.174;11.566;2023-07-28T10:27:37;95239.50;;;23.51;54.52
25420;BME280;13354;48.174;11.566;2023-07-28T10:30:09;95228.41;;;23.53;53.22
25420;BME280;13354;48.174;11.566;2023-07-28T10:32:38;95247.69;;;23.41;53.58
25420;BME280;13354;48.174;11.566;2023-07-28T10:37:38;95240.34;;;23.47;54.02
25420;BME280;13354;48.174;11.566;2023-07-28T10:42:49;95243.31;;;23.45;53.74
25420;BME280;13354;48.174;11.566;2023-07-28T10:45:15;95232.44;;;23.55;53.49
25420;BME280;13354;48.174;11.566;2023-07-28T10:47:41;95255.16;;;23.54;54.01
25420;BME280;13354;48.174;11.566;2023-07-28T10:50:09;95242.84;;;23.72;54.03
25420;BME280;13354;48.174;11.566;2023-07-28T10:52:34;95260.16;;;23.66;53.50
25420;BME280;13354;48.174;11.566;2023-07-28T10:55:04;95254.53;;;23.68;53.01
25420;BME280;13354;48.174;11.566;2023-07-28T10:57:29;95253.34;;;23.79;52.94
25420;BME280;13354;48.174;11.566;2023-07-28T11:00:00;95256.59;;;24.00;52.24
25420;BME280;13354;48.174;11.566;2023-07-28T11:02:26;95259.03;;;24.25;51.19
25420;BME280;13354;48.174;11.566;2023-07-28T11:04:52;95261.31;;;24.42;50.65
25420;BME280;13354;48.174;11.566;2023-07-28T11:07:17;95245.22;;;24.51;50.65
25420;BME280;13354;48.174;11.566;2023-07-28T11:09:43;95263.16;;;24.85;49.87
25420;BME280;13354;48.174;11.566;2023-07-28T11:12:09;95257.53;;;24.62;49.61
25420;BME280;13354;48.174;11.566;2023-07-28T11:14:35;95260.41;;;24.71;49.99
25420;BME280;13354;48.174;11.566;2023-07-28T11:17:01;95253.53;;;24.78;50.13
25420;BME280;13354;48.174;11.566;2023-07-28T11:19:26;95240.94;;;24.88;48.88
25420;BME280;13354;48.174;11.566;2023-07-28T11:21:52;95262.59;;;24.69;49.27
25420;BME280;13354;48.174;11.566;2023-07-28T11:24:19;95250.00;;;24.78;49.27
25420;BME280;13354;48.174;11.566;2023-07-28T11:26:45;95246.66;;;24.86;48.99
25420;BME280;13354;48.174;11.566;2023-07-28T11:29:11;95249.13;;;24.82;49.41
25420;BME280;13354;48.174;11.566;2023-07-28T11:31:37;95255.84;;;24.85;48.88
25420;BME280;13354;48.174;11.566;2023-07-28T11:34:02;95259.06;;;24.68;50.37
25420;BME280;13354;48.174;11.566;2023-07-28T11:36:29;95253.22;;;24.99;49.46
25420;BME280;13354;48.174;11.566;2023-07-28T11:38:57;95254.25;;;24.65;49.72
25420;BME280;13354;48.174;11.566;2023-07-28T11:41:23;95271.81;;;24.44;50.37
25420;BME280;13354;48.174;11.566;2023-07-28T11:43:50;95249.81;;;24.26;50.78
25420;BME280;13354;48.174;11.566;2023-07-28T11:46:43;95247.78;;;24.42;51.40
25420;BME280;13354;48.174;11.566;2023-07-28T11:49:15;95262.25;;;24.51;50.88
25420;BME280;13354;48.174;11.566;2023-07-28T11:51:45;95248.47;;;24.53;50.79
25420;BME280;13354;48.174;11.566;2023-07-28T11:54:16;95253.06;;;24.52;51.18
25420;BME280;13354;48.174;11.566;2023-07-28T11:56:46;95255.22;;;24.26;51.13
25420;BME280;13354;48.174;11.566;2023-07-28T11:59:15;95256.78;;;24.32;50.45
25420;BME280;13354;48.174;11.566;2023-07-28T12:02:00;95259.81;;;24.26;49.73
25420;BME280;13354;48.174;11.566;2023-07-28T12:04:27;95255.81;;;24.47;49.57
25420;BME280;13354;48.174;11.566;2023-07-28T12:07:04;95251.84;;;24.40;49.70
25420;BME280;13354;48.174;11.566;2023-07-28T12:09:52;95256.38;;;24.44;50.10
25420;BME280;13354;48.174;11.566;2023-07-28T12:12:19;95232.84;;;24.45;49.87
25420;BME280;13354;48.174;11.566;2023-07-28T12:14:45;95240.91;;;24.50;49.52
25420;BME280;13354;48.174;11.566;2023-07-28T12:17:16;95241.50;;;24.47;49.21
25420;BME280;13354;48.174;11.566;2023-07-28T12:20:08;95242.84;;;24.68;50.18
25420;BME280;13354;48.174;11.566;2023-07-28T12:22:37;95243.84;;;24.91;49.13
25420;BME280;13354;48.174;11.566;2023-07-28T12:25:04;95240.56;;;24.94;49.64
25420;BME280;13354;48.174;11.566;2023-07-28T12:27:30;95245.31;;;25.02;48.90
25420;BME280;13354;48.174;11.566;2023-07-28T12:29:55;95239.31;;;25.05;48.41
25420;BME280;13354;48.174;11.566;2023-07-28T12:32:21;95255.56;;;24.87;48.93
25420;BME280;13354;48.174;11.566;2023-07-28T12:34:48;95246.88;;;24.71;49.33
25420;BME280;13354;48.174;11.566;2023-07-28T12:37:13;95248.28;;;24.63;49.61
25420;BME280;13354;48.174;11.566;2023-07-28T12:39:39;95249.34;;;24.67;50.03
25420;BME280;13354;48.174;11.566;2023-07-28T12:42:06;95249.59;;;24.47;50.36
25420;BME280;13354;48.174;11.566;2023-07-28T12:44:31;95254.06;;;24.32;50.86
25420;BME280;13354;48.174;11.566;2023-07-28T12:46:57;95245.66;;;24.58;50.50
25420;BME280;13354;48.174;11.566;2023-07-28T12:49:22;95237.41;;;25.06;49.61
25420;BME280;13354;48.174;11.566;2023-07-28T12:51:48;95237.41;;;25.06;48.94
25420;BME280;13354;48.174;11.566;2023-07-28T12:54:13;95229.81;;;25.08;49.03
25420;BME280;13354;48.174;11.566;2023-07-28T12:56:38;95246.84;;;25.09;48.98
25420;BME280;13354;48.174;11.566;2023-07-28T12:59:03;95245.25;;;25.08;48.77